Time,TemperatureF,DewpointF,PressureIn,WindDirection,WindDirectionDegrees,WindSpeedMPH,WindSpeedGustMPH,Humidity,HourlyPrecipIn,Conditions,Clouds,dailyrainin,SoftwareType,DateUTC
2013-11-22 00:03:00,55.9,4.1,29.90,NE,35,4.0,5.8,12,0.00,,,0.00,VWS V14.01,2013-11-22 08:03:00,
2013-11-22 00:08:00,55.9,4.1,29.90,SSE,151,0.0,8.1,12,0.00,,,0.00,VWS V14.01,2013-11-22 08:08:00,
2013-11-22 00:13:00,55.9,4.1,29.90,West,277,11.0,11.0,12,0.00,,,0.00,VWS V14.01,2013-11-22 08:13:00,
2013-11-22 00:18:00,55.9,4.1,29.90,SSE,153,5.8,9.6,12,0.00,,,0.00,VWS V14.01,2013-11-22 08:18:00,
2013-11-22 00:23:00,55.9,4.1,29.90,NNW,327,5.8,5.8,12,0.00,,,0.00,VWS V14.01,2013-11-22 08:23:00,
2013-11-22 00:28:00,55.9,4.1,29.90,North,7,8.7,8.7,12,0.00,,,0.00,VWS V14.01,2013-11-22 08:28:00,
2013-11-22 00:33:00,55.9,4.1,29.90,NNE,19,10.5,10.5,12,0.00,,,0.00,VWS V14.01,2013-11-22 08:33:00,
2013-11-22 00:38:00,55.9,4.1,29.90,ENE,64,5.8,9.6,12,0.00,,,0.00,VWS V14.01,2013-11-22 08:38:00,
2013-11-22 00:43:00,55.9,4.1,29.90,East,83,6.3,10.5,12,0.00,,,0.00,VWS V14.01,2013-11-22 08:43:00,
2013-11-22 00:48:00,55.9,4.1,29.90,NNE,27,9.2,9.2,12,0.00,,,0.00,VWS V14.01,2013-11-22 08:48:00,
2013-11-22 00:53:00,56.1,4.2,29.90,NNE,22,5.8,6.7,12,0.00,,,0.00,VWS V14.01,2013-11-22 08:53:00,
2013-11-22 00:58:00,55.9,4.1,29.90,WNW,294,3.6,3.6,12,0.00,,,0.00,VWS V14.01,2013-11-22 08:58:00,
2013-11-22 01:03:00,55.9,4.1,29.90,East,83,13.2,13.2,12,0.00,,,0.00,VWS V14.01,2013-11-22 09:03:00,
2013-11-22 01:08:00,55.9,4.1,29.90,North,353,7.2,13.2,12,0.00,,,0.00,VWS V14.01,2013-11-22 09:08:00,
2013-11-22 01:13:00,55.9,4.1,29.90,East,96,12.3,12.3,12,0.00,,,0.00,VWS V14.01,2013-11-22 09:13:00,
2013-11-22 01:18:00,56.1,4.2,29.90,West,271,5.4,5.8,12,0.00,,,0.00,VWS V14.01,2013-11-22 09:18:00,
2013-11-22 01:23:00,56.1,4.2,29.90,ESE,112,7.2,9.6,12,0.00,,,0.00,VWS V14.01,2013-11-22 09:23:00,
2013-11-22 01:28:00,56.1,4.2,29.90,East,96,4.0,6.3,12,0.00,,,0.00,VWS V14.01,2013-11-22 09:28:00,
2013-11-22 01:33:00,56.1,4.2,29.90,NE,49,10.5,10.5,12,0.00,,,0.00,VWS V14.01,2013-11-22 09:33:00,
2013-11-22 01:38:00,56.1,4.2,29.90,NNW,328,8.3,11.0,12,0.00,,,0.00,VWS V14.01,2013-11-22 09:38:00,
2013-11-22 01:43:00,56.1,4.2,29.90,West,270,2.7,5.4,12,0.00,,,0.00,VWS V14.01,2013-11-22 09:43:00,
2013-11-22 01:48:00,56.1,4.2,29.90,SSW,200,3.1,6.3,12,0.00,,,0.00,VWS V14.01,2013-11-22 09:48:00,
2013-11-22 01:53:00,55.9,4.1,29.90,SSE,156,4.0,5.8,12,0.00,,,0.00,VWS V14.01,2013-11-22 09:53:00,
2013-11-22 01:58:00,55.9,4.1,29.90,NNE,33,3.6,5.4,12,0.00,,,0.00,VWS V14.01,2013-11-22 09:58:00,
2013-11-22 02:03:00,55.8,3.9,29.90,ENE,68,8.1,8.1,12,0.00,,,0.00,VWS V14.01,2013-11-22 10:03:00,
2013-11-22 02:08:00,55.8,3.9,29.90,ENE,63,3.6,6.3,12,0.00,,,0.00,VWS V14.01,2013-11-22 10:08:00,
2013-11-22 02:13:00,55.8,3.9,29.90,East,91,5.8,12.8,12,0.00,,,0.00,VWS V14.01,2013-11-22 10:13:00,
2013-11-22 02:18:00,55.8,3.9,29.90,East,94,8.3,8.3,12,0.00,,,0.00,VWS V14.01,2013-11-22 10:18:00,
2013-11-22 02:23:00,55.8,3.9,29.90,ENE,76,5.4,10.1,12,0.00,,,0.00,VWS V14.01,2013-11-22 10:23:00,
2013-11-22 02:28:00,55.8,3.9,29.90,NNW,340,8.1,8.1,12,0.00,,,0.00,VWS V14.01,2013-11-22 10:28:00,
2013-11-22 02:33:00,55.8,3.9,29.90,East,99,12.3,12.3,12,0.00,,,0.00,VWS V14.01,2013-11-22 10:33:00,
2013-11-22 02:38:00,55.8,3.9,29.90,North,3,5.4,10.5,12,0.00,,,0.00,VWS V14.01,2013-11-22 10:38:00,
2013-11-22 02:43:00,55.8,3.9,29.90,NE,53,8.1,11.9,12,0.00,,,0.00,VWS V14.01,2013-11-22 10:43:00,
2013-11-22 02:48:00,55.8,3.9,29.90,West,276,10.1,11.0,12,0.00,,,0.00,VWS V14.01,2013-11-22 10:48:00,
2013-11-22 02:53:00,55.8,3.9,29.90,East,95,3.6,4.0,12,0.00,,,0.00,VWS V14.01,2013-11-22 10:53:00,
2013-11-22 02:58:00,55.8,3.9,29.90,ENE,58,4.0,14.1,12,0.00,,,0.00,VWS V14.01,2013-11-22 10:58:00,
2013-11-22 03:03:00,55.8,3.9,29.90,NE,47,6.3,9.6,12,0.00,,,0.00,VWS V14.01,2013-11-22 11:03:00,
2013-11-22 03:08:00,55.6,3.8,29.90,NE,43,10.5,10.5,12,0.00,,,0.00,VWS V14.01,2013-11-22 11:08:00,
2013-11-22 03:13:00,55.6,3.8,29.90,North,2,8.1,15.4,12,0.00,,,0.00,VWS V14.01,2013-11-22 11:13:00,
2013-11-22 03:18:00,55.4,3.7,29.90,East,98,8.1,10.5,12,0.00,,,0.00,VWS V14.01,2013-11-22 11:18:00,
2013-11-22 03:23:00,55.4,3.7,29.90,ENE,78,4.0,6.3,12,0.00,,,0.00,VWS V14.01,2013-11-22 11:23:00,
2013-11-22 03:28:00,55.2,5.2,29.90,NNE,14,8.7,11.0,13,0.00,,,0.00,VWS V14.01,2013-11-22 11:28:00,
2013-11-22 03:33:00,55.2,5.2,29.90,NNE,28,10.1,10.1,13,0.00,,,0.00,VWS V14.01,2013-11-22 11:33:00,
2013-11-22 03:38:00,55.2,5.2,29.90,SE,128,11.0,14.5,13,0.00,,,0.00,VWS V14.01,2013-11-22 11:38:00,
2013-11-22 03:44:00,55.2,5.2,29.90,NNE,23,7.6,12.3,13,0.00,,,0.00,VWS V14.01,2013-11-22 11:44:00,
2013-11-22 03:49:00,55.0,5.1,29.90,WNW,291,4.0,6.3,13,0.00,,,0.00,VWS V14.01,2013-11-22 11:49:00,
2013-11-22 03:54:00,55.0,5.1,29.90,NNW,343,6.3,6.3,13,0.00,,,0.00,VWS V14.01,2013-11-22 11:54:00,
2013-11-22 03:59:00,55.0,5.1,29.90,NNW,335,5.4,13.2,13,0.00,,,0.00,VWS V14.01,2013-11-22 11:59:00,
2013-11-22 04:04:00,55.0,5.1,29.90,SE,136,10.5,13.2,13,0.00,,,0.00,VWS V14.01,2013-11-22 12:04:00,
2013-11-22 04:09:00,55.2,5.2,29.90,South,174,15.0,15.0,13,0.00,,,0.00,VWS V14.01,2013-11-22 12:09:00,
2013-11-22 04:14:00,55.2,5.2,29.90,East,90,4.9,15.4,13,0.00,,,0.00,VWS V14.01,2013-11-22 12:14:00,
2013-11-22 04:19:00,55.2,5.2,29.90,East,86,8.1,14.5,13,0.00,,,0.00,VWS V14.01,2013-11-22 12:19:00,
2013-11-22 04:24:00,55.4,3.7,29.90,NNW,340,3.6,9.6,12,0.00,,,0.00,VWS V14.01,2013-11-22 12:24:00,
2013-11-22 04:29:00,55.4,3.7,29.90,ESE,123,5.4,10.1,12,0.00,,,0.00,VWS V14.01,2013-11-22 12:29:00,
2013-11-22 04:34:00,55.6,3.8,29.90,WSW,237,4.9,5.4,12,0.00,,,0.00,VWS V14.01,2013-11-22 12:34:00,
2013-11-22 04:39:00,55.6,3.8,29.90,SSE,157,5.4,6.3,12,0.00,,,0.00,VWS V14.01,2013-11-22 12:39:00,
2013-11-22 04:44:00,55.8,3.9,29.90,North,357,5.4,15.4,12,0.00,,,0.00,VWS V14.01,2013-11-22 12:44:00,
2013-11-22 04:49:00,55.8,3.9,29.90,SSW,213,2.2,8.1,12,0.00,,,0.00,VWS V14.01,2013-11-22 12:49:00,
2013-11-22 04:54:00,55.8,3.9,29.90,East,89,4.0,4.0,12,0.00,,,0.00,VWS V14.01,2013-11-22 12:54:00,
2013-11-22 04:59:00,55.8,3.9,29.90,East,96,13.2,13.2,12,0.00,,,0.00,VWS V14.01,2013-11-22 12:59:00,
2013-11-22 05:04:00,55.6,3.8,29.90,ENE,69,6.3,8.1,12,0.00,,,0.00,VWS V14.01,2013-11-22 13:04:00,
2013-11-22 05:09:00,55.4,3.7,29.93,WSW,238,5.8,11.0,12,0.00,,,0.00,VWS V14.01,2013-11-22 13:09:00,
2013-11-22 05:14:00,55.2,5.2,29.93,NNW,334,3.1,6.3,13,0.00,,,0.00,VWS V14.01,2013-11-22 13:14:00,
2013-11-22 05:19:00,55.2,5.2,29.93,ESE,116,3.6,4.9,13,0.00,,,0.00,VWS V14.01,2013-11-22 13:19:00,
2013-11-22 05:24:00,55.2,5.2,29.93,SSE,161,5.4,5.4,13,0.00,,,0.00,VWS V14.01,2013-11-22 13:24:00,
2013-11-22 05:29:00,55.0,5.1,29.93,ESE,123,2.7,8.1,13,0.00,,,0.00,VWS V14.01,2013-11-22 13:29:00,
2013-11-22 05:34:00,55.0,5.1,29.93,SSW,194,2.7,4.5,13,0.00,,,0.00,VWS V14.01,2013-11-22 13:34:00,
2013-11-22 05:39:00,54.9,5.0,29.93,SE,136,3.1,3.1,13,0.00,,,0.00,VWS V14.01,2013-11-22 13:39:00,
2013-11-22 05:44:00,54.9,5.0,29.93,SSW,192,3.6,5.8,13,0.00,,,0.00,VWS V14.01,2013-11-22 13:44:00,
2013-11-22 05:49:00,54.7,4.8,29.93,SSE,147,2.7,5.4,13,0.00,,,0.00,VWS V14.01,2013-11-22 13:49:00,
2013-11-22 05:54:00,54.7,4.8,29.93,NE,40,4.9,4.9,13,0.00,,,0.00,VWS V14.01,2013-11-22 13:54:00,
2013-11-22 05:59:00,54.7,4.8,29.93,West,264,0.0,3.1,13,0.00,,,0.00,VWS V14.01,2013-11-22 13:59:00,
2013-11-22 06:04:00,54.5,4.7,29.93,East,85,2.2,3.1,13,0.00,,,0.00,VWS V14.01,2013-11-22 14:04:00,
2013-11-22 06:09:00,54.5,4.7,29.93,North,3,4.0,4.0,13,0.00,,,0.00,VWS V14.01,2013-11-22 14:09:00,
2013-11-22 06:14:00,54.5,4.7,29.93,SE,144,2.2,2.2,13,0.00,,,0.00,VWS V14.01,2013-11-22 14:14:00,
2013-11-22 06:19:00,54.5,4.7,29.93,North,1,2.7,2.7,13,0.00,,,0.00,VWS V14.01,2013-11-22 14:19:00,
2013-11-22 06:24:00,54.5,4.7,29.93,West,273,2.7,2.7,13,0.00,,,0.00,VWS V14.01,2013-11-22 14:24:00,
2013-11-22 06:29:00,54.5,4.7,29.93,North,357,0.0,2.2,13,0.00,,,0.00,VWS V14.01,2013-11-22 14:29:00,
2013-11-22 06:34:00,54.5,4.7,29.93,West,271,4.9,8.1,13,0.00,,,0.00,VWS V14.01,2013-11-22 14:34:00,
2013-11-22 06:39:00,54.3,4.5,29.96,WNW,283,2.2,2.2,13,0.00,,,0.00,VWS V14.01,2013-11-22 14:39:00,
2013-11-22 06:44:00,54.1,4.4,29.96,NNW,331,3.1,3.1,13,0.00,,,0.00,VWS V14.01,2013-11-22 14:44:00,
2013-11-22 06:49:00,54.1,4.4,29.96,WNW,289,4.0,4.0,13,0.00,,,0.00,VWS V14.01,2013-11-22 14:49:00,
2013-11-22 06:54:00,54.0,4.2,29.93,North,9,2.2,4.9,13,0.00,,,0.00,VWS V14.01,2013-11-22 14:54:00,
2013-11-22 06:59:00,54.0,4.2,29.93,North,0,0.0,0.0,13,0.00,,,0.00,VWS V14.01,2013-11-22 14:59:00,
2013-11-22 07:04:00,53.6,4.0,29.93,WNW,282,2.7,2.7,13,0.00,,,0.00,VWS V14.01,2013-11-22 15:04:00,
2013-11-22 07:09:00,53.4,3.8,29.93,WNW,282,0.0,0.0,13,0.00,,,0.00,VWS V14.01,2013-11-22 15:09:00,
2013-11-22 07:14:00,53.1,3.5,29.93,North,0,0.0,0.0,13,0.00,,,0.00,VWS V14.01,2013-11-22 15:14:00,
2013-11-22 07:19:00,53.1,3.5,29.93,NNE,15,3.1,3.6,13,0.00,,,0.00,VWS V14.01,2013-11-22 15:19:00,
2013-11-22 07:24:00,52.9,3.4,29.96,NW,311,0.0,0.0,13,0.00,,,0.00,VWS V14.01,2013-11-22 15:24:00,
2013-11-22 07:29:00,52.7,3.2,29.96,NW,320,0.0,0.0,13,0.00,,,0.00,VWS V14.01,2013-11-22 15:29:00,
2013-11-22 07:34:00,52.7,3.2,29.96,NNW,332,3.6,3.6,13,0.00,,,0.00,VWS V14.01,2013-11-22 15:34:00,
2013-11-22 07:39:00,52.7,3.2,29.93,NW,318,2.2,2.7,13,0.00,,,0.00,VWS V14.01,2013-11-22 15:39:00,
2013-11-22 07:44:00,52.9,3.4,29.93,West,277,0.0,2.7,13,0.00,,,0.00,VWS V14.01,2013-11-22 15:44:00,
2013-11-22 07:49:00,53.1,3.5,29.93,WNW,287,2.7,2.7,13,0.00,,,0.00,VWS V14.01,2013-11-22 15:49:00,
2013-11-22 07:54:00,53.4,3.8,29.93,East,83,0.0,0.0,13,0.00,,,0.00,VWS V14.01,2013-11-22 15:54:00,
2013-11-22 07:59:00,54.1,4.4,29.93,ESE,122,0.0,0.0,13,0.00,,,0.00,VWS V14.01,2013-11-22 15:59:00,
2013-11-22 08:04:00,54.5,4.7,29.93,WNW,293,0.0,3.1,13,0.00,,,0.00,VWS V14.01,2013-11-22 16:04:00,
2013-11-22 08:09:00,54.9,5.0,29.96,West,268,0.0,2.7,13,0.00,,,0.00,VWS V14.01,2013-11-22 16:09:00,
2013-11-22 08:14:00,55.2,5.2,29.96,NW,318,2.7,5.4,13,0.00,,,0.00,VWS V14.01,2013-11-22 16:14:00,
2013-11-22 08:19:00,55.6,3.8,29.96,NW,318,5.8,5.8,12,0.00,,,0.00,VWS V14.01,2013-11-22 16:19:00,
2013-11-22 08:24:00,55.9,4.1,29.96,West,275,0.0,3.1,12,0.00,,,0.00,VWS V14.01,2013-11-22 16:24:00,
2013-11-22 08:29:00,56.3,4.4,29.96,West,279,0.0,3.1,12,0.00,,,0.00,VWS V14.01,2013-11-22 16:29:00,
2013-11-22 08:34:00,56.8,4.8,29.96,NW,309,0.0,4.0,12,0.00,,,0.00,VWS V14.01,2013-11-22 16:34:00,
2013-11-22 08:39:00,57.0,4.9,29.96,NNW,343,2.7,3.1,12,0.00,,,0.00,VWS V14.01,2013-11-22 16:39:00,
2013-11-22 08:44:00,57.2,5.1,29.96,WNW,291,5.4,5.4,12,0.00,,,0.00,VWS V14.01,2013-11-22 16:44:00,
2013-11-22 08:49:00,57.6,5.3,29.96,North,357,2.2,3.6,12,0.00,,,0.00,VWS V14.01,2013-11-22 16:49:00,
2013-11-22 08:54:00,57.9,5.6,29.96,WNW,290,2.2,2.7,12,0.00,,,0.00,VWS V14.01,2013-11-22 16:54:00,
2013-11-22 08:59:00,58.1,5.8,29.96,ESE,103,0.0,5.4,12,0.00,,,0.00,VWS V14.01,2013-11-22 16:59:00,
2013-11-22 09:04:00,58.3,5.9,29.96,WNW,289,2.7,5.4,12,0.00,,,0.00,VWS V14.01,2013-11-22 17:04:00,
2013-11-22 09:09:00,58.5,6.1,29.96,WNW,292,4.0,4.0,12,0.00,,,0.00,VWS V14.01,2013-11-22 17:09:00,
2013-11-22 09:14:00,58.8,6.3,29.96,WNW,302,2.7,5.4,12,0.00,,,0.00,VWS V14.01,2013-11-22 17:14:00,
2013-11-22 09:19:00,59.2,6.6,29.96,North,357,4.0,5.8,12,0.00,,,0.00,VWS V14.01,2013-11-22 17:19:00,
2013-11-22 09:24:00,59.4,6.8,29.96,NE,53,3.6,3.6,12,0.00,,,0.00,VWS V14.01,2013-11-22 17:24:00,
2013-11-22 09:29:00,59.7,7.0,29.96,North,0,0.0,5.4,12,0.00,,,0.00,VWS V14.01,2013-11-22 17:29:00,
2013-11-22 09:34:00,60.1,7.3,29.96,North,0,3.6,5.8,12,0.00,,,0.00,VWS V14.01,2013-11-22 17:34:00,
2013-11-22 09:39:00,60.4,7.6,29.96,North,0,4.9,11.0,12,0.00,,,0.00,VWS V14.01,2013-11-22 17:39:00,
2013-11-22 09:44:00,60.6,7.8,29.96,ENE,68,6.7,6.7,12,0.00,,,0.00,VWS V14.01,2013-11-22 17:44:00,
2013-11-22 09:49:00,61.2,6.3,29.96,WSW,237,2.2,6.3,11,0.00,,,0.00,VWS V14.01,2013-11-22 17:49:00,
2013-11-22 09:54:00,61.7,6.7,29.93,North,10,4.0,5.8,11,0.00,,,0.00,VWS V14.01,2013-11-22 17:54:00,
2013-11-22 09:59:00,62.2,7.1,29.93,ESE,110,8.3,8.3,11,0.00,,,0.00,VWS V14.01,2013-11-22 17:59:00,
2013-11-22 10:04:00,62.6,7.4,29.93,WSW,246,4.5,10.1,11,0.00,,,0.00,VWS V14.01,2013-11-22 18:04:00,
2013-11-22 10:09:00,63.0,7.7,29.93,NW,320,6.3,6.3,11,0.00,,,0.00,VWS V14.01,2013-11-22 18:09:00,
2013-11-22 10:14:00,63.5,8.1,29.93,ENE,58,8.1,8.1,11,0.00,,,0.00,VWS V14.01,2013-11-22 18:14:00,
2013-11-22 10:19:00,63.9,8.4,29.93,ENE,68,3.1,6.7,11,0.00,,,0.00,VWS V14.01,2013-11-22 18:19:00,
2013-11-22 10:24:00,64.2,8.6,29.93,NNW,344,3.6,5.4,11,0.00,,,0.00,VWS V14.01,2013-11-22 18:24:00,
2013-11-22 10:29:00,64.4,6.7,29.93,ENE,66,5.4,5.8,10,0.00,,,0.00,VWS V14.01,2013-11-22 18:29:00,
2013-11-22 10:34:00,64.6,6.8,29.93,SSW,208,2.2,11.0,10,0.00,,,0.00,VWS V14.01,2013-11-22 18:34:00,
2013-11-22 10:39:00,64.8,6.9,29.93,SSW,202,5.4,6.3,10,0.00,,,0.00,VWS V14.01,2013-11-22 18:39:00,
2013-11-22 10:44:00,64.8,6.9,29.93,NNE,12,3.6,12.8,10,0.00,,,0.00,VWS V14.01,2013-11-22 18:44:00,
2013-11-22 10:49:00,64.8,6.9,29.93,WNW,300,7.6,7.6,10,0.00,,,0.00,VWS V14.01,2013-11-22 18:49:00,
2013-11-22 10:54:00,64.9,7.1,29.90,ESE,104,8.1,15.0,10,0.00,,,0.00,VWS V14.01,2013-11-22 18:54:00,
2013-11-22 10:59:00,64.9,7.1,29.90,SSE,149,3.1,5.8,10,0.00,,,0.00,VWS V14.01,2013-11-22 18:59:00,
2013-11-22 11:04:00,64.9,7.1,29.90,West,271,5.4,5.8,10,0.00,,,0.00,VWS V14.01,2013-11-22 19:04:00,
2013-11-22 11:09:00,65.1,7.2,29.90,SW,223,10.1,10.1,10,0.00,,,0.00,VWS V14.01,2013-11-22 19:09:00,
2013-11-22 11:14:00,65.1,7.2,29.90,East,87,4.0,4.9,10,0.00,,,0.00,VWS V14.01,2013-11-22 19:14:00,
2013-11-22 11:19:00,65.7,7.6,29.90,WSW,247,4.0,6.3,10,0.00,,,0.00,VWS V14.01,2013-11-22 19:19:00,
2013-11-22 11:24:00,65.8,7.8,29.90,East,82,9.2,12.8,10,0.00,,,0.00,VWS V14.01,2013-11-22 19:24:00,
2013-11-22 11:29:00,65.5,7.5,29.90,NW,314,3.6,8.3,10,0.00,,,0.00,VWS V14.01,2013-11-22 19:29:00,
2013-11-22 11:34:00,65.5,7.5,29.90,West,274,7.6,8.1,10,0.00,,,0.00,VWS V14.01,2013-11-22 19:34:00,
2013-11-22 11:39:00,65.7,7.6,29.90,NW,313,3.6,4.0,10,0.00,,,0.00,VWS V14.01,2013-11-22 19:39:00,
2013-11-22 11:44:00,65.8,7.8,29.90,East,85,6.7,6.7,10,0.00,,,0.00,VWS V14.01,2013-11-22 19:44:00,
2013-11-22 11:49:00,65.8,7.8,29.90,South,171,13.2,13.2,10,0.00,,,0.00,VWS V14.01,2013-11-22 19:49:00,
2013-11-22 11:54:00,66.0,7.9,29.87,ESE,113,5.8,5.8,10,0.00,,,0.00,VWS V14.01,2013-11-22 19:54:00,
2013-11-22 11:59:00,66.0,7.9,29.87,NE,53,5.8,13.2,10,0.00,,,0.00,VWS V14.01,2013-11-22 19:59:00,
2013-11-22 12:04:00,66.2,8.1,29.87,NNE,24,5.8,8.7,10,0.00,,,0.00,VWS V14.01,2013-11-22 20:04:00,
2013-11-22 12:09:00,66.4,8.2,29.87,WNW,285,6.3,9.2,10,0.00,,,0.00,VWS V14.01,2013-11-22 20:09:00,
2013-11-22 12:14:00,66.6,8.3,29.87,NE,49,4.0,4.0,10,0.00,,,0.00,VWS V14.01,2013-11-22 20:14:00,
2013-11-22 12:19:00,66.6,8.3,29.87,NNE,30,5.8,6.3,10,0.00,,,0.00,VWS V14.01,2013-11-22 20:19:00,
2013-11-22 12:24:00,66.7,8.5,29.87,SW,219,5.4,5.4,10,0.00,,,0.00,VWS V14.01,2013-11-22 20:24:00,
2013-11-22 12:29:00,66.9,8.6,29.87,North,357,5.8,5.8,10,0.00,,,0.00,VWS V14.01,2013-11-22 20:29:00,
2013-11-22 12:34:00,66.9,8.6,29.87,NNW,335,6.3,12.3,10,0.00,,,0.00,VWS V14.01,2013-11-22 20:34:00,
2013-11-22 12:39:00,66.9,8.6,29.87,NNE,28,8.3,8.3,10,0.00,,,0.00,VWS V14.01,2013-11-22 20:39:00,
2013-11-22 12:44:00,67.1,8.7,29.87,NNW,343,2.7,2.7,10,0.00,,,0.00,VWS V14.01,2013-11-22 20:44:00,
2013-11-22 12:49:00,67.5,9.0,29.87,WNW,290,7.6,8.1,10,0.00,,,0.00,VWS V14.01,2013-11-22 20:49:00,
2013-11-22 12:54:00,67.5,9.0,29.87,North,9,4.9,5.8,10,0.00,,,0.00,VWS V14.01,2013-11-22 20:54:00,
2013-11-22 12:59:00,67.5,9.0,29.87,SE,143,2.7,8.7,10,0.00,,,0.00,VWS V14.01,2013-11-22 20:59:00,
2013-11-22 13:04:00,67.6,9.1,29.87,NNW,330,4.0,10.1,10,0.00,,,0.00,VWS V14.01,2013-11-22 21:04:00,
2013-11-22 13:09:00,68.0,9.4,29.87,SW,236,3.6,6.3,10,0.00,,,0.00,VWS V14.01,2013-11-22 21:09:00,
2013-11-22 13:14:00,68.2,9.6,29.87,SW,220,6.3,10.5,10,0.00,,,0.00,VWS V14.01,2013-11-22 21:14:00,
2013-11-22 13:19:00,68.2,9.6,29.87,NE,45,4.0,8.7,10,0.00,,,0.00,VWS V14.01,2013-11-22 21:19:00,
2013-11-22 13:24:00,68.2,9.6,29.84,NNE,14,14.5,14.5,10,0.00,,,0.00,VWS V14.01,2013-11-22 21:24:00,
2013-11-22 13:29:00,68.0,9.4,29.84,South,187,2.7,4.9,10,0.00,,,0.00,VWS V14.01,2013-11-22 21:29:00,
2013-11-22 13:34:00,68.0,9.4,29.84,ESE,106,8.7,8.7,10,0.00,,,0.00,VWS V14.01,2013-11-22 21:34:00,
2013-11-22 13:39:00,68.2,9.6,29.84,SE,130,8.7,11.0,10,0.00,,,0.00,VWS V14.01,2013-11-22 21:39:00,
2013-11-22 13:44:00,68.2,9.6,29.84,ENE,60,10.1,14.1,10,0.00,,,0.00,VWS V14.01,2013-11-22 21:44:00,
2013-11-22 13:49:00,68.2,9.6,29.84,ENE,60,6.3,6.3,10,0.00,,,0.00,VWS V14.01,2013-11-22 21:49:00,
2013-11-22 13:54:00,68.2,9.6,29.84,NW,326,2.2,8.1,10,0.00,,,0.00,VWS V14.01,2013-11-22 21:54:00,
2013-11-22 13:59:00,68.5,9.8,29.84,NNW,327,4.0,10.5,10,0.00,,,0.00,VWS V14.01,2013-11-22 21:59:00,
2013-11-22 14:04:00,68.5,9.8,29.84,North,353,8.7,8.7,10,0.00,,,0.00,VWS V14.01,2013-11-22 22:04:00,
2013-11-22 14:09:00,68.5,9.8,29.84,South,188,5.4,8.1,10,0.00,,,0.00,VWS V14.01,2013-11-22 22:09:00,
2013-11-22 14:14:00,68.9,10.1,29.84,SSW,196,0.0,6.3,10,0.00,,,0.00,VWS V14.01,2013-11-22 22:14:00,
2013-11-22 14:19:00,69.1,10.3,29.84,SE,125,6.3,6.3,10,0.00,,,0.00,VWS V14.01,2013-11-22 22:19:00,
2013-11-22 14:24:00,69.1,10.3,29.84,East,88,5.4,5.4,10,0.00,,,0.00,VWS V14.01,2013-11-22 22:24:00,
2013-11-22 14:29:00,69.1,10.3,29.84,WNW,300,3.6,5.8,10,0.00,,,0.00,VWS V14.01,2013-11-22 22:29:00,
2013-11-22 14:34:00,69.3,10.4,29.84,WSW,254,2.7,7.6,10,0.00,,,0.00,VWS V14.01,2013-11-22 22:34:00,
2013-11-22 14:39:00,69.4,10.5,29.84,NNW,331,3.6,8.1,10,0.00,,,0.00,VWS V14.01,2013-11-22 22:39:00,
2013-11-22 14:44:00,69.4,10.5,29.84,East,86,3.1,4.0,10,0.00,,,0.00,VWS V14.01,2013-11-22 22:44:00,
2013-11-22 14:49:00,69.4,10.5,29.84,SSE,168,3.1,8.1,10,0.00,,,0.00,VWS V14.01,2013-11-22 22:49:00,
2013-11-22 14:54:00,69.4,10.5,29.84,ENE,70,2.2,6.7,10,0.00,,,0.00,VWS V14.01,2013-11-22 22:54:00,
2013-11-22 14:59:00,69.6,10.7,29.84,SE,132,4.9,5.8,10,0.00,,,0.00,VWS V14.01,2013-11-22 22:59:00,
2013-11-22 15:04:00,69.6,10.7,29.84,WNW,299,2.7,2.7,10,0.00,,,0.00,VWS V14.01,2013-11-22 23:04:00,
2013-11-22 15:09:00,69.6,10.7,29.84,NNE,28,5.4,5.4,10,0.00,,,0.00,VWS V14.01,2013-11-22 23:09:00,
2013-11-22 15:14:00,69.6,10.7,29.84,NW,306,7.6,7.6,10,0.00,,,0.00,VWS V14.01,2013-11-22 23:14:00,
2013-11-22 15:19:00,69.4,10.5,29.84,North,0,3.6,8.3,10,0.00,,,0.00,VWS V14.01,2013-11-22 23:19:00,
2013-11-22 15:24:00,69.4,10.5,29.84,SE,129,5.4,5.4,10,0.00,,,0.00,VWS V14.01,2013-11-22 23:24:00,
2013-11-22 15:29:00,69.3,10.4,29.84,NNW,341,3.6,5.8,10,0.00,,,0.00,VWS V14.01,2013-11-22 23:29:00,
2013-11-22 15:34:00,69.4,10.5,29.84,East,87,3.6,7.6,10,0.00,,,0.00,VWS V14.01,2013-11-22 23:34:00,
2013-11-22 15:39:00,69.3,10.4,29.84,NW,320,3.1,3.1,10,0.00,,,0.00,VWS V14.01,2013-11-22 23:39:00,
2013-11-22 15:44:00,69.3,10.4,29.84,NW,317,5.4,5.4,10,0.00,,,0.00,VWS V14.01,2013-11-22 23:44:00,
2013-11-22 15:49:00,69.3,10.4,29.84,East,86,3.1,8.1,10,0.00,,,0.00,VWS V14.01,2013-11-22 23:49:00,
2013-11-22 15:54:00,69.3,10.4,29.84,WSW,248,4.0,4.0,10,0.00,,,0.00,VWS V14.01,2013-11-22 23:54:00,
2013-11-22 15:59:00,69.1,10.3,29.84,West,271,8.1,8.1,10,0.00,,,0.00,VWS V14.01,2013-11-22 23:59:00,
2013-11-22 16:04:00,68.9,10.1,29.84,ESE,105,6.3,8.1,10,0.00,,,0.00,VWS V14.01,2013-11-23 00:04:00,
2013-11-22 16:09:00,68.7,10.0,29.84,North,10,5.4,6.3,10,0.00,,,0.00,VWS V14.01,2013-11-23 00:09:00,
2013-11-22 16:14:00,68.7,10.0,29.84,NW,323,7.6,8.1,10,0.00,,,0.00,VWS V14.01,2013-11-23 00:14:00,
2013-11-22 16:19:00,68.5,9.8,29.84,SW,223,4.9,5.8,10,0.00,,,0.00,VWS V14.01,2013-11-23 00:19:00,
2013-11-22 16:24:00,68.4,9.7,29.84,WSW,255,3.6,5.4,10,0.00,,,0.00,VWS V14.01,2013-11-23 00:24:00,
2013-11-22 16:29:00,68.2,9.6,29.84,West,270,4.0,4.9,10,0.00,,,0.00,VWS V14.01,2013-11-23 00:29:00,
2013-11-22 16:34:00,68.0,9.4,29.84,NNE,12,8.3,8.3,10,0.00,,,0.00,VWS V14.01,2013-11-23 00:34:00,
2013-11-22 16:39:00,67.6,9.1,29.84,SSE,152,5.8,7.2,10,0.00,,,0.00,VWS V14.01,2013-11-23 00:39:00,
2013-11-22 16:44:00,67.5,9.0,29.84,NW,312,3.1,7.6,10,0.00,,,0.00,VWS V14.01,2013-11-23 00:44:00,
2013-11-22 16:49:00,67.1,8.7,29.84,WSW,239,7.6,7.6,10,0.00,,,0.00,VWS V14.01,2013-11-23 00:49:00,
2013-11-22 16:54:00,67.1,8.7,29.84,ENE,61,8.1,8.1,10,0.00,,,0.00,VWS V14.01,2013-11-23 00:54:00,
2013-11-22 16:59:00,66.9,8.6,29.84,WNW,301,3.1,6.3,10,0.00,,,0.00,VWS V14.01,2013-11-23 00:59:00,
2013-11-22 17:04:00,66.7,8.5,29.84,ENE,76,5.8,5.8,10,0.00,,,0.00,VWS V14.01,2013-11-23 01:04:00,
2013-11-22 17:09:00,66.6,8.3,29.84,NNW,336,6.3,6.3,10,0.00,,,0.00,VWS V14.01,2013-11-23 01:09:00,
2013-11-22 17:14:00,66.6,8.3,29.84,WNW,287,10.5,10.5,10,0.00,,,0.00,VWS V14.01,2013-11-23 01:14:00,
2013-11-22 17:19:00,66.4,8.2,29.84,West,266,0.0,3.6,10,0.00,,,0.00,VWS V14.01,2013-11-23 01:19:00,
2013-11-22 17:24:00,66.4,8.2,29.84,West,259,3.6,8.7,10,0.00,,,0.00,VWS V14.01,2013-11-23 01:24:00,
2013-11-22 17:29:00,66.2,8.1,29.84,NW,312,5.8,5.8,10,0.00,,,0.00,VWS V14.01,2013-11-23 01:29:00,
2013-11-22 17:34:00,66.0,7.9,29.84,NW,307,4.9,6.3,10,0.00,,,0.00,VWS V14.01,2013-11-23 01:34:00,
2013-11-22 17:39:00,66.0,7.9,29.84,NW,306,4.9,4.9,10,0.00,,,0.00,VWS V14.01,2013-11-23 01:39:00,
2013-11-22 17:44:00,66.0,7.9,29.84,ENE,62,3.6,8.3,10,0.00,,,0.00,VWS V14.01,2013-11-23 01:44:00,
2013-11-22 17:49:00,65.8,7.8,29.84,North,2,4.9,12.3,10,0.00,,,0.00,VWS V14.01,2013-11-23 01:49:00,
2013-11-22 17:54:00,65.8,7.8,29.84,North,357,8.3,8.3,10,0.00,,,0.00,VWS V14.01,2013-11-23 01:54:00,
2013-11-22 17:59:00,65.8,7.8,29.84,South,184,5.4,6.3,10,0.00,,,0.00,VWS V14.01,2013-11-23 01:59:00,
2013-11-22 18:04:00,65.5,7.5,29.84,ENE,76,4.5,4.9,10,0.00,,,0.00,VWS V14.01,2013-11-23 02:04:00,
2013-11-22 18:09:00,65.3,7.4,29.84,WSW,258,3.6,3.6,10,0.00,,,0.00,VWS V14.01,2013-11-23 02:09:00,
2013-11-22 18:14:00,65.1,7.2,29.84,North,0,5.8,7.2,10,0.00,,,0.00,VWS V14.01,2013-11-23 02:14:00,
2013-11-22 18:19:00,65.1,7.2,29.84,NE,39,11.9,11.9,10,0.00,,,0.00,VWS V14.01,2013-11-23 02:19:00,
2013-11-22 18:24:00,65.1,7.2,29.84,West,271,5.8,8.3,10,0.00,,,0.00,VWS V14.01,2013-11-23 02:24:00,
2013-11-22 18:29:00,64.9,7.1,29.84,NW,312,4.0,5.8,10,0.00,,,0.00,VWS V14.01,2013-11-23 02:29:00,
2013-11-22 18:34:00,64.8,6.9,29.84,North,3,5.8,9.6,10,0.00,,,0.00,VWS V14.01,2013-11-23 02:34:00,
2013-11-22 18:39:00,64.6,6.8,29.84,SSW,203,3.1,8.3,10,0.00,,,0.00,VWS V14.01,2013-11-23 02:39:00,
2013-11-22 18:44:00,64.4,6.7,29.84,SSE,153,8.7,10.1,10,0.00,,,0.00,VWS V14.01,2013-11-23 02:44:00,
2013-11-22 18:49:00,64.2,8.6,29.84,NW,306,4.0,8.1,11,0.00,,,0.00,VWS V14.01,2013-11-23 02:49:00,
2013-11-22 18:54:00,63.7,8.2,29.84,NNE,33,5.4,5.4,11,0.00,,,0.00,VWS V14.01,2013-11-23 02:54:00,
2013-11-22 18:59:00,63.3,7.9,29.84,ESE,108,5.4,5.4,11,0.00,,,0.00,VWS V14.01,2013-11-23 02:59:00,
2013-11-22 19:04:00,63.0,7.7,29.84,SE,131,3.6,8.7,11,0.00,,,0.00,VWS V14.01,2013-11-23 03:04:00,
2013-11-22 19:09:00,62.6,7.4,29.84,ENE,76,7.6,10.5,11,0.00,,,0.00,VWS V14.01,2013-11-23 03:09:00,
2013-11-22 19:14:00,61.9,6.8,29.84,NE,37,5.8,5.8,11,0.00,,,0.00,VWS V14.01,2013-11-23 03:14:00,
2013-11-22 19:19:00,61.3,6.4,29.84,North,0,4.9,4.9,11,0.00,,,0.00,VWS V14.01,2013-11-23 03:19:00,
2013-11-22 19:24:00,61.0,6.1,29.84,SW,235,4.9,8.3,11,0.00,,,0.00,VWS V14.01,2013-11-23 03:24:00,
2013-11-22 19:29:00,60.8,6.0,29.84,East,98,3.1,5.4,11,0.00,,,0.00,VWS V14.01,2013-11-23 03:29:00,
2013-11-22 19:34:00,60.6,7.8,29.84,SW,234,0.0,3.6,12,0.00,,,0.00,VWS V14.01,2013-11-23 03:34:00,
2013-11-22 19:39:00,60.4,7.6,29.81,NE,39,5.4,11.0,12,0.00,,,0.00,VWS V14.01,2013-11-23 03:39:00,
2013-11-22 19:44:00,60.3,7.5,29.81,WSW,257,7.2,7.2,12,0.00,,,0.00,VWS V14.01,2013-11-23 03:44:00,
2013-11-22 19:49:00,60.1,7.3,29.81,WNW,284,5.8,8.1,12,0.00,,,0.00,VWS V14.01,2013-11-23 03:49:00,
2013-11-22 19:54:00,59.7,7.0,29.81,NNW,330,5.4,5.4,12,0.00,,,0.00,VWS V14.01,2013-11-23 03:54:00,
2013-11-22 19:59:00,59.7,7.0,29.81,SE,144,2.7,13.2,12,0.00,,,0.00,VWS V14.01,2013-11-23 03:59:00,
2013-11-22 20:04:00,59.7,7.0,29.81,North,353,5.4,9.6,12,0.00,,,0.00,VWS V14.01,2013-11-23 04:04:00,
2013-11-22 20:09:00,59.7,7.0,29.84,NNW,336,3.6,8.1,12,0.00,,,0.00,VWS V14.01,2013-11-23 04:09:00,
2013-11-22 20:14:00,59.5,6.9,29.84,North,357,5.4,5.4,12,0.00,,,0.00,VWS V14.01,2013-11-23 04:14:00,
2013-11-22 20:19:00,59.4,6.8,29.84,East,82,12.8,12.8,12,0.00,,,0.00,VWS V14.01,2013-11-23 04:19:00,
2013-11-22 20:24:00,59.2,6.6,29.84,North,353,5.8,5.8,12,0.00,,,0.00,VWS V14.01,2013-11-23 04:24:00,
2013-11-22 20:29:00,59.2,6.6,29.84,WSW,253,2.7,2.7,12,0.00,,,0.00,VWS V14.01,2013-11-23 04:29:00,
2013-11-22 20:34:00,59.2,6.6,29.84,East,101,0.0,6.3,12,0.00,,,0.00,VWS V14.01,2013-11-23 04:34:00,
2013-11-22 20:39:00,59.2,6.6,29.84,SE,141,4.9,6.3,12,0.00,,,0.00,VWS V14.01,2013-11-23 04:39:00,
2013-11-22 20:44:00,59.2,6.6,29.84,ENE,62,4.0,8.7,12,0.00,,,0.00,VWS V14.01,2013-11-23 04:44:00,
2013-11-22 20:49:00,59.4,6.8,29.84,ESE,104,3.6,6.3,12,0.00,,,0.00,VWS V14.01,2013-11-23 04:49:00,
2013-11-22 20:54:00,59.7,7.0,29.84,ESE,108,6.3,6.3,12,0.00,,,0.00,VWS V14.01,2013-11-23 04:54:00,
2013-11-22 20:59:00,59.9,7.2,29.84,NNE,30,8.7,8.7,12,0.00,,,0.00,VWS V14.01,2013-11-23 04:59:00,
2013-11-22 21:01:00,59.9,7.2,29.84,NNW,344,7.6,7.6,12,0.00,,,0.00,VWS V14.01,2013-11-23 05:01:00,
2013-11-22 21:02:00,60.1,7.3,29.84,NNE,28,6.3,8.1,12,0.00,,,0.00,VWS V14.01,2013-11-23 05:02:00,
2013-11-22 21:07:00,60.1,7.3,29.84,NNW,331,6.3,6.3,12,0.00,,,0.00,VWS V14.01,2013-11-23 05:07:00,
2013-11-22 21:12:00,60.1,7.3,29.84,NNW,343,6.7,6.7,12,0.00,,,0.00,VWS V14.01,2013-11-23 05:12:00,
2013-11-22 21:17:00,60.3,7.5,29.84,ESE,115,2.2,5.8,12,0.00,,,0.00,VWS V14.01,2013-11-23 05:17:00,
2013-11-22 21:22:00,60.1,7.3,29.84,WSW,239,4.9,10.5,12,0.00,,,0.00,VWS V14.01,2013-11-23 05:22:00,
2013-11-22 21:27:00,60.1,7.3,29.84,SW,224,2.2,5.4,12,0.00,,,0.00,VWS V14.01,2013-11-23 05:27:00,
2013-11-22 21:32:00,60.1,7.3,29.84,East,98,8.7,8.7,12,0.00,,,0.00,VWS V14.01,2013-11-23 05:32:00,
2013-11-22 21:37:00,60.1,7.3,29.84,West,266,0.0,7.2,12,0.00,,,0.00,VWS V14.01,2013-11-23 05:37:00,
2013-11-22 21:42:00,60.3,7.5,29.84,East,79,15.0,15.0,12,0.00,,,0.00,VWS V14.01,2013-11-23 05:42:00,
2013-11-22 21:47:00,60.6,7.8,29.84,WSW,258,8.1,8.1,12,0.00,,,0.00,VWS V14.01,2013-11-23 05:47:00,
2013-11-22 21:52:00,60.6,7.8,29.84,NNW,339,5.8,8.7,12,0.00,,,0.00,VWS V14.01,2013-11-23 05:52:00,
2013-11-22 21:57:00,61.0,6.1,29.84,NE,38,8.3,9.6,11,0.00,,,0.00,VWS V14.01,2013-11-23 05:57:00,
2013-11-22 22:02:00,61.0,6.1,29.84,SSE,149,0.0,2.7,11,0.00,,,0.00,VWS V14.01,2013-11-23 06:02:00,
2013-11-22 22:07:00,60.8,6.0,29.87,NE,35,3.6,8.1,11,0.00,,,0.00,VWS V14.01,2013-11-23 06:07:00,
2013-11-22 22:12:00,60.4,7.6,29.87,NNE,30,4.9,4.9,12,0.00,,,0.00,VWS V14.01,2013-11-23 06:12:00,
2013-11-22 22:17:00,59.9,7.2,29.87,ESE,104,2.2,5.4,12,0.00,,,0.00,VWS V14.01,2013-11-23 06:17:00,
2013-11-22 22:22:00,59.4,6.8,29.87,ENE,76,0.0,4.0,12,0.00,,,0.00,VWS V14.01,2013-11-23 06:22:00,
2013-11-22 22:27:00,58.8,6.3,29.87,North,353,3.1,5.4,12,0.00,,,0.00,VWS V14.01,2013-11-23 06:27:00,
2013-11-22 22:32:00,58.5,6.1,29.87,West,276,3.1,3.6,12,0.00,,,0.00,VWS V14.01,2013-11-23 06:32:00,
2013-11-22 22:37:00,58.3,5.9,29.87,NE,53,2.7,2.7,12,0.00,,,0.00,VWS V14.01,2013-11-23 06:37:00,
2013-11-22 22:42:00,57.9,5.6,29.87,NE,51,4.9,4.9,12,0.00,,,0.00,VWS V14.01,2013-11-23 06:42:00,
2013-11-22 22:47:00,57.6,5.3,29.87,SSE,149,2.7,4.0,12,0.00,,,0.00,VWS V14.01,2013-11-23 06:47:00,
2013-11-22 22:52:00,57.0,4.9,29.90,SSE,149,5.4,5.4,12,0.00,,,0.00,VWS V14.01,2013-11-23 06:52:00,
2013-11-22 22:57:00,56.7,4.6,29.90,SSE,149,4.9,7.6,12,0.00,,,0.00,VWS V14.01,2013-11-23 06:57:00,
2013-11-22 23:02:00,56.1,4.2,29.90,East,90,3.1,8.1,12,0.00,,,0.00,VWS V14.01,2013-11-23 07:02:00,
2013-11-22 23:07:00,55.9,4.1,29.90,ENE,66,6.3,6.3,12,0.00,,,0.00,VWS V14.01,2013-11-23 07:07:00,
2013-11-22 23:12:00,55.8,3.9,29.87,NNE,32,6.3,10.5,12,0.00,,,0.00,VWS V14.01,2013-11-23 07:12:00,
2013-11-22 23:17:00,55.6,3.8,29.87,East,83,5.4,5.8,12,0.00,,,0.00,VWS V14.01,2013-11-23 07:17:00,
2013-11-22 23:22:00,55.6,3.8,29.87,East,90,6.3,8.7,12,0.00,,,0.00,VWS V14.01,2013-11-23 07:22:00,
2013-11-22 23:27:00,55.6,3.8,29.87,NNE,31,8.3,11.9,12,0.00,,,0.00,VWS V14.01,2013-11-23 07:27:00,
2013-11-22 23:32:00,55.4,3.7,29.87,NE,53,6.3,6.3,12,0.00,,,0.00,VWS V14.01,2013-11-23 07:32:00,
2013-11-22 23:37:00,55.4,3.7,29.90,NNE,22,12.3,12.3,12,0.00,,,0.00,VWS V14.01,2013-11-23 07:37:00,
2013-11-22 23:42:00,55.2,5.2,29.90,NE,37,8.7,15.4,13,0.00,,,0.00,VWS V14.01,2013-11-23 07:42:00,
2013-11-22 23:47:00,55.4,3.7,29.90,SSW,211,4.9,6.3,12,0.00,,,0.00,VWS V14.01,2013-11-23 07:47:00,
2013-11-22 23:52:00,55.4,3.7,29.90,ESE,117,5.8,5.8,12,0.00,,,0.00,VWS V14.01,2013-11-23 07:52:00,
2013-11-22 23:57:00,55.4,3.7,29.87,North,1,3.1,8.7,12,0.00,,,0.00,VWS V14.01,2013-11-23 07:57:00,